sensor_id;sensor_type;location;lat;lon;timestamp;temperature;humidity
45319;DHT22;31057;48.498;32.260;2022-11-20T00:01:51;0.90;99.90
45319;DHT22;31057;48.498;32.260;2022-11-20T00:03:55;0.80;99.90
45319;DHT22;31057;48.498;32.260;2022-11-20T00:06:04;1.00;99.90
45319;DHT22;31057;48.498;32.260;2022-11-20T00:08:06;0.80;99.90
45319;DHT22;31057;48.498;32.260;2022-11-20T00:10:08;0.80;99.90
45319;DHT22;31057;48.498;32.260;2022-11-20T00:12:10;0.80;99.90
45319;DHT22;31057;48.498;32.260;2022-11-20T00:14:12;0.90;99.90
45319;DHT22;31057;48.498;32.260;2022-11-20T00:16:16;0.80;99.90
45319;DHT22;31057;48.498;32.260;2022-11-20T00:18:18;0.90;99.90
45319;DHT22;31057;48.498;32.260;2022-11-20T00:20:20;0.90;99.90
45319;DHT22;31057;48.498;32.260;2022-11-20T00:22:21;0.90;99.90
45319;DHT22;31057;48.498;32.260;2022-11-20T00:24:23;0.80;99.90
45319;DHT22;31057;48.498;32.260;2022-11-20T00:26:26;0.70;99.90
45319;DHT22;31057;48.498;32.260;2022-11-20T00:28:28;0.70;99.90
45319;DHT22;31057;48.498;32.260;2022-11-20T00:30:30;0.70;99.90
45319;DHT22;31057;48.498;32.260;2022-11-20T00:32:32;0.80;99.90
45319;DHT22;31057;48.498;32.260;2022-11-20T00:34:34;0.80;99.90
45319;DHT22;31057;48.498;32.260;2022-11-20T00:36:36;0.80;99.90
45319;DHT22;31057;48.498;32.260;2022-11-20T00:38:38;0.90;99.90
45319;DHT22;31057;48.498;32.260;2022-11-20T00:40:39;0.90;99.90
45319;DHT22;31057;48.498;32.260;2022-11-20T00:42:41;0.90;99.90
45319;DHT22;31057;48.498;32.260;2022-11-20T00:44:43;0.70;99.90
45319;DHT22;31057;48.498;32.260;2022-11-20T00:46:45;0.80;99.90
45319;DHT22;31057;48.498;32.260;2022-11-20T00:48:47;0.70;99.90
45319;DHT22;31057;48.498;32.260;2022-11-20T00:50:49;1.20;99.90
45319;DHT22;31057;48.498;32.260;2022-11-20T00:52:51;0.90;99.90
45319;DHT22;31057;48.498;32.260;2022-11-20T00:54:53;0.80;99.90
45319;DHT22;31057;48.498;32.260;2022-11-20T00:56:55;0.80;99.90
45319;DHT22;31057;48.498;32.260;2022-11-20T00:58:58;0.80;99.90
45319;DHT22;31057;48.498;32.260;2022-11-20T01:01:10;0.80;99.90
45319;DHT22;31057;48.498;32.260;2022-11-20T01:03:13;0.80;99.90
45319;DHT22;31057;48.498;32.260;2022-11-20T01:05:15;0.90;99.90
45319;DHT22;31057;48.498;32.260;2022-11-20T01:07:17;0.90;99.90
45319;DHT22;31057;48.498;32.260;2022-11-20T01:09:19;0.80;99.90
45319;DHT22;31057;48.498;32.260;2022-11-20T01:11:27;0.90;99.90
45319;DHT22;31057;48.498;32.260;2022-11-20T01:13:31;0.80;99.90
45319;DHT22;31057;48.498;32.260;2022-11-20T01:15:39;0.80;99.90
45319;DHT22;31057;48.498;32.260;2022-11-20T01:17:40;0.70;99.90
45319;DHT22;31057;48.498;32.260;2022-11-20T01:19:42;0.90;99.90
45319;DHT22;31057;48.498;32.260;2022-11-20T01:21:45;0.90;99.90
45319;DHT22;31057;48.498;32.260;2022-11-20T01:23:48;0.90;99.90
45319;DHT22;31057;48.498;32.260;2022-11-20T01:25:50;0.90;99.90
45319;DHT22;31057;48.498;32.260;2022-11-20T01:27:53;0.90;99.90
45319;DHT22;31057;48.498;32.260;2022-11-20T01:29:54;0.90;99.90
45319;DHT22;31057;48.498;32.260;2022-11-20T01:32:01;0.80;99.90
45319;DHT22;31057;48.498;32.260;2022-11-20T01:34:06;0.90;99.90
45319;DHT22;31057;48.498;32.260;2022-11-20T01:36:11;0.90;99.90
45319;DHT22;31057;48.498;32.260;2022-11-20T01:38:15;0.90;99.90
45319;DHT22;31057;48.498;32.260;2022-11-20T01:40:18;0.90;99.90
45319;DHT22;31057;48.498;32.260;2022-11-20T01:42:19;0.90;99.90
45319;DHT22;31057;48.498;32.260;2022-11-20T01:46:58;0.80;99.90
45319;DHT22;31057;48.498;32.260;2022-11-20T01:49:17;1.10;99.90
45319;DHT22;31057;48.498;32.260;2022-11-20T01:51:50;0.90;99.90
45319;DHT22;31057;48.498;32.260;2022-11-20T01:53:52;1.00;99.90
45319;DHT22;31057;48.498;32.260;2022-11-20T01:55:57;0.90;99.90
45319;DHT22;31057;48.498;32.260;2022-11-20T01:58:01;0.90;99.90
45319;DHT22;31057;48.498;32.260;2022-11-20T02:00:07;0.90;99.90
45319;DHT22;31057;48.498;32.260;2022-11-20T02:02:10;0.90;99.90
45319;DHT22;31057;48.498;32.260;2022-11-20T02:04:12;0.90;99.90
45319;DHT22;31057;48.498;32.260;2022-11-20T02:08:17;0.90;99.90
45319;DHT22;31057;48.498;32.260;2022-11-20T02:10:20;0.90;99.90
45319;DHT22;31057;48.498;32.260;2022-11-20T02:12:22;0.90;99.90
45319;DHT22;31057;48.498;32.260;2022-11-20T02:14:43;0.90;99.90
45319;DHT22;31057;48.498;32.260;2022-11-20T02:16:46;1.00;99.90
45319;DHT22;31057;48.498;32.260;2022-11-20T02:18:49;0.90;99.90
45319;DHT22;31057;48.498;32.260;2022-11-20T02:21:07;0.90;99.90
45319;DHT22;31057;48.498;32.260;2022-11-20T02:25:47;0.90;99.90
45319;DHT22;31057;48.498;32.260;2022-11-20T02:27:49;0.90;99.90
45319;DHT22;31057;48.498;32.260;2022-11-20T02:30:00;0.90;99.90
45319;DHT22;31057;48.498;32.260;2022-11-20T02:32:03;0.80;99.90
45319;DHT22;31057;48.498;32.260;2022-11-20T02:34:05;0.90;99.90
45319;DHT22;31057;48.498;32.260;2022-11-20T02:36:09;0.90;99.90
45319;DHT22;31057;48.498;32.260;2022-11-20T02:38:14;0.80;99.90
45319;DHT22;31057;48.498;32.260;2022-11-20T02:40:16;0.80;99.90
45319;DHT22;31057;48.498;32.260;2022-11-20T02:42:18;0.80;99.90
45319;DHT22;31057;48.498;32.260;2022-11-20T02:44:20;0.80;99.90
45319;DHT22;31057;48.498;32.260;2022-11-20T02:46:22;0.80;99.90
45319;DHT22;31057;48.498;32.260;2022-11-20T02:48:24;0.90;99.90
45319;DHT22;31057;48.498;32.260;2022-11-20T02:50:28;0.90;99.90
45319;DHT22;31057;48.498;32.260;2022-11-20T02:52:30;0.90;99.90
45319;DHT22;31057;48.498;32.260;2022-11-20T02:54:32;1.10;99.90
45319;DHT22;31057;48.498;32.260;2022-11-20T02:56:34;0.90;99.90
45319;DHT22;31057;48.498;32.260;2022-11-20T02:58:39;0.80;99.90
45319;DHT22;31057;48.498;32.260;2022-11-20T03:00:42;0.70;99.90
45319;DHT22;31057;48.498;32.260;2022-11-20T03:02:44;0.60;99.90
45319;DHT22;31057;48.498;32.260;2022-11-20T03:04:46;0.60;99.90
45319;DHT22;31057;48.498;32.260;2022-11-20T03:06:48;0.60;99.90
45319;DHT22;31057;48.498;32.260;2022-11-20T03:08:50;0.70;99.90
45319;DHT22;31057;48.498;32.260;2022-11-20T03:10:52;0.60;99.90
45319;DHT22;31057;48.498;32.260;2022-11-20T03:12:54;0.80;99.90
45319;DHT22;31057;48.498;32.260;2022-11-20T03:14:57;0.60;99.90
45319;DHT22;31057;48.498;32.260;2022-11-20T03:16:58;0.60;99.90
45319;DHT22;31057;48.498;32.260;2022-11-20T03:19:01;0.50;99.90
45319;DHT22;31057;48.498;32.260;2022-11-20T03:21:03;0.60;99.90
45319;DHT22;31057;48.498;32.260;2022-11-20T03:23:05;0.50;99.90
45319;DHT22;31057;48.498;32.260;2022-11-20T03:25:07;0.60;99.90
45319;DHT22;31057;48.498;32.260;2022-11-20T03:27:09;0.60;99.90
45319;DHT22;31057;48.498;32.260;2022-11-20T03:29:11;0.60;99.90
45319;DHT22;31057;48.498;32.260;2022-11-20T03:31:15;0.60;99.90
45319;DHT22;31057;48.498;32.260;2022-11-20T03:33:17;0.60;99.90
45319;DHT22;31057;48.498;32.260;2022-11-20T03:35:19;0.70;99.90
45319;DHT22;31057;48.498;32.260;2022-11-20T03:37:21;0.70;99.90
45319;DHT22;31057;48.498;32.260;2022-11-20T03:39:23;0.60;99.90
45319;DHT22;31057;48.498;32.260;2022-11-20T03:41:27;0.70;99.90
45319;DHT22;31057;48.498;32.260;2022-11-20T03:43:29;0.70;99.90
45319;DHT22;31057;48.498;32.260;2022-11-20T03:45:31;0.60;99.90
45319;DHT22;31057;48.498;32.260;2022-11-20T03:47:33;0.60;99.90
45319;DHT22;31057;48.498;32.260;2022-11-20T03:49:34;0.60;99.90
45319;DHT22;31057;48.498;32.260;2022-11-20T03:51:36;0.70;99.90
45319;DHT22;31057;48.498;32.260;2022-11-20T03:53:39;0.60;99.90
45319;DHT22;31057;48.498;32.260;2022-11-20T03:55:42;0.60;99.90
45319;DHT22;31057;48.498;32.260;2022-11-20T03:57:44;0.60;99.90
45319;DHT22;31057;48.498;32.260;2022-11-20T03:59:46;0.60;99.90
45319;DHT22;31057;48.498;32.260;2022-11-20T04:01:47;0.70;99.90
45319;DHT22;31057;48.498;32.260;2022-11-20T04:03:53;0.70;99.90
45319;DHT22;31057;48.498;32.260;2022-11-20T04:05:55;0.70;99.90
45319;DHT22;31057;48.498;32.260;2022-11-20T04:07:57;0.70;99.90
45319;DHT22;31057;48.498;32.260;2022-11-20T04:09:59;0.70;99.90
45319;DHT22;31057;48.498;32.260;2022-11-20T04:12:01;0.70;99.90
45319;DHT22;31057;48.498;32.260;2022-11-20T04:14:05;0.80;99.90
45319;DHT22;31057;48.498;32.260;2022-11-20T04:16:09;0.80;99.90
45319;DHT22;31057;48.498;32.260;2022-11-20T04:18:11;0.80;99.90
45319;DHT22;31057;48.498;32.260;2022-11-20T04:20:12;0.80;99.90
45319;DHT22;31057;48.498;32.260;2022-11-20T04:22:14;0.90;99.90
45319;DHT22;31057;48.498;32.260;2022-11-20T04:24:16;1.00;99.90
45319;DHT22;31057;48.498;32.260;2022-11-20T04:26:19;0.90;99.90
45319;DHT22;31057;48.498;32.260;2022-11-20T04:28:21;0.90;99.90
45319;DHT22;31057;48.498;32.260;2022-11-20T04:30:23;0.90;99.90
45319;DHT22;31057;48.498;32.260;2022-11-20T04:32:24;0.90;99.90
45319;DHT22;31057;48.498;32.260;2022-11-20T04:34:26;0.90;99.90
45319;DHT22;31057;48.498;32.260;2022-11-20T04:36:29;0.80;99.90
45319;DHT22;31057;48.498;32.260;2022-11-20T04:38:31;0.80;99.90
45319;DHT22;31057;48.498;32.260;2022-11-20T04:40:33;0.80;99.90
45319;DHT22;31057;48.498;32.260;2022-11-20T04:42:35;0.80;99.90
45319;DHT22;31057;48.498;32.260;2022-11-20T04:44:37;0.80;99.90
45319;DHT22;31057;48.498;32.260;2022-11-20T04:46:41;0.80;99.90
45319;DHT22;31057;48.498;32.260;2022-11-20T04:48:43;0.80;99.90
45319;DHT22;31057;48.498;32.260;2022-11-20T04:50:45;0.70;99.90
45319;DHT22;31057;48.498;32.260;2022-11-20T04:52:48;0.80;99.90
45319;DHT22;31057;48.498;32.260;2022-11-20T04:54:50;0.80;99.90
45319;DHT22;31057;48.498;32.260;2022-11-20T04:56:54;0.70;99.90
45319;DHT22;31057;48.498;32.260;2022-11-20T04:59:00;0.70;99.90
45319;DHT22;31057;48.498;32.260;2022-11-20T05:01:15;0.70;99.90
45319;DHT22;31057;48.498;32.260;2022-11-20T05:03:17;0.70;99.90
45319;DHT22;31057;48.498;32.260;2022-11-20T05:05:19;0.70;99.90
45319;DHT22;31057;48.498;32.260;2022-11-20T05:07:21;0.90;99.90
45319;DHT22;31057;48.498;32.260;2022-11-20T05:09:23;0.80;99.90
45319;DHT22;31057;48.498;32.260;2022-11-20T05:11:25;0.80;99.90
45319;DHT22;31057;48.498;32.260;2022-11-20T05:13:27;0.80;99.90
45319;DHT22;31057;48.498;32.260;2022-11-20T05:15:29;0.80;99.90
45319;DHT22;31057;48.498;32.260;2022-11-20T05:17:31;0.80;99.90
45319;DHT22;31057;48.498;32.260;2022-11-20T05:19:33;0.80;99.90
45319;DHT22;31057;48.498;32.260;2022-11-20T05:21:35;0.80;99.90
45319;DHT22;31057;48.498;32.260;2022-11-20T05:23:37;0.80;99.90
45319;DHT22;31057;48.498;32.260;2022-11-20T05:25:39;0.80;99.90
45319;DHT22;31057;48.498;32.260;2022-11-20T05:27:41;0.80;99.90
45319;DHT22;31057;48.498;32.260;2022-11-20T05:29:44;0.80;99.90
45319;DHT22;31057;48.498;32.260;2022-11-20T05:31:45;0.80;99.90
45319;DHT22;31057;48.498;32.260;2022-11-20T05:33:47;0.90;99.90
45319;DHT22;31057;48.498;32.260;2022-11-20T05:35:49;0.90;99.90
45319;DHT22;31057;48.498;32.260;2022-11-20T05:37:51;0.90;99.90
45319;DHT22;31057;48.498;32.260;2022-11-20T05:39:53;0.90;99.90
45319;DHT22;31057;48.498;32.260;2022-11-20T05:41:55;0.90;99.90
45319;DHT22;31057;48.498;32.260;2022-11-20T05:44:15;0.90;99.90
45319;DHT22;31057;48.498;32.260;2022-11-20T05:46:19;0.90;99.90
45319;DHT22;31057;48.498;32.260;2022-11-20T05:48:30;1.20;99.90
45319;DHT22;31057;48.498;32.260;2022-11-20T05:50:31;1.20;99.90
45319;DHT22;31057;48.498;32.260;2022-11-20T05:52:33;1.10;99.90
45319;DHT22;31057;48.498;32.260;2022-11-20T05:54:35;1.00;99.90
45319;DHT22;31057;48.498;32.260;2022-11-20T05:56:37;1.00;99.90
45319;DHT22;31057;48.498;32.260;2022-11-20T05:58:40;1.00;99.90
45319;DHT22;31057;48.498;32.260;2022-11-20T06:00:42;1.00;99.90
45319;DHT22;31057;48.498;32.260;2022-11-20T06:02:43;1.00;99.90
45319;DHT22;31057;48.498;32.260;2022-11-20T06:04:45;1.00;99.90
45319;DHT22;31057;48.498;32.260;2022-11-20T06:06:47;1.10;99.90
45319;DHT22;31057;48.498;32.260;2022-11-20T06:08:49;1.10;99.90
45319;DHT22;31057;48.498;32.260;2022-11-20T06:10:51;1.00;99.90
45319;DHT22;31057;48.498;32.260;2022-11-20T06:12:53;0.90;99.90
45319;DHT22;31057;48.498;32.260;2022-11-20T06:14:55;1.00;99.90
45319;DHT22;31057;48.498;32.260;2022-11-20T06:16:57;0.90;99.90
45319;DHT22;31057;48.498;32.260;2022-11-20T06:18:58;1.00;99.90
45319;DHT22;31057;48.498;32.260;2022-11-20T06:23:12;1.10;99.90
45319;DHT22;31057;48.498;32.260;2022-11-20T06:25:14;1.20;99.90
45319;DHT22;31057;48.498;32.260;2022-11-20T06:27:16;1.10;99.90
45319;DHT22;31057;48.498;32.260;2022-11-20T06:29:18;1.10;99.90
45319;DHT22;31057;48.498;32.260;2022-11-20T06:31:22;1.10;99.90
45319;DHT22;31057;48.498;32.260;2022-11-20T06:33:25;1.10;99.90
45319;DHT22;31057;48.498;32.260;2022-11-20T06:35:27;1.10;99.90
45319;DHT22;31057;48.498;32.260;2022-11-20T06:37:29;1.10;99.90
45319;DHT22;31057;48.498;32.260;2022-11-20T06:39:31;1.20;99.90
45319;DHT22;31057;48.498;32.260;2022-11-20T06:41:32;1.40;99.90
45319;DHT22;31057;48.498;32.260;2022-11-20T06:43:34;1.30;99.90
45319;DHT22;31057;48.498;32.260;2022-11-20T06:45:37;1.40;99.90
45319;DHT22;31057;48.498;32.260;2022-11-20T06:47:39;1.20;99.90
45319;DHT22;31057;48.498;32.260;2022-11-20T06:49:40;1.30;99.90
45319;DHT22;31057;48.498;32.260;2022-11-20T06:51:42;1.10;99.90
45319;DHT22;31057;48.498;32.260;2022-11-20T06:53:44;1.10;99.90
45319;DHT22;31057;48.498;32.260;2022-11-20T06:55:46;1.10;99.90
45319;DHT22;31057;48.498;32.260;2022-11-20T06:57:50;1.10;99.90
45319;DHT22;31057;48.498;32.260;2022-11-20T06:59:56;1.10;99.90
45319;DHT22;31057;48.498;32.260;2022-11-20T07:01:58;1.20;99.90
45319;DHT22;31057;48.498;32.260;2022-11-20T07:04:00;1.20;99.90
45319;DHT22;31057;48.498;32.260;2022-11-20T07:06:02;1.30;99.90
45319;DHT22;31057;48.498;32.260;2022-11-20T07:08:05;1.20;99.90
45319;DHT22;31057;48.498;32.260;2022-11-20T07:10:07;1.20;99.90
45319;DHT22;31057;48.498;32.260;2022-11-20T07:12:09;1.10;99.90
45319;DHT22;31057;48.498;32.260;2022-11-20T07:14:11;1.10;99.90
45319;DHT22;31057;48.498;32.260;2022-11-20T07:16:13;1.20;99.90
45319;DHT22;31057;48.498;32.260;2022-11-20T07:18:15;1.30;99.90
45319;DHT22;31057;48.498;32.260;2022-11-20T07:20:16;1.30;99.90
45319;DHT22;31057;48.498;32.260;2022-11-20T07:22:18;1.30;99.90
45319;DHT22;31057;48.498;32.260;2022-11-20T07:24:23;1.30;99.90
45319;DHT22;31057;48.498;32.260;2022-11-20T07:26:25;1.30;99.90
45319;DHT22;31057;48.498;32.260;2022-11-20T07:28:26;1.30;99.90
45319;DHT22;31057;48.498;32.260;2022-11-20T07:30:29;1.30;99.90
45319;DHT22;31057;48.498;32.260;2022-11-20T07:32:31;1.30;99.90
45319;DHT22;31057;48.498;32.260;2022-11-20T07:34:33;1.30;99.90
45319;DHT22;31057;48.498;32.260;2022-11-20T07:36:35;1.30;99.90
45319;DHT22;31057;48.498;32.260;2022-11-20T07:38:37;1.40;99.90
45319;DHT22;31057;48.498;32.260;2022-11-20T07:40:39;1.30;99.90
45319;DHT22;31057;48.498;32.260;2022-11-20T07:42:51;1.30;99.90
45319;DHT22;31057;48.498;32.260;2022-11-20T07:44:53;1.30;99.90
45319;DHT22;31057;48.498;32.260;2022-11-20T07:46:55;1.40;99.90
45319;DHT22;31057;48.498;32.260;2022-11-20T07:48:57;1.40;99.90
45319;DHT22;31057;48.498;32.260;2022-11-20T07:50:59;1.40;99.90
45319;DHT22;31057;48.498;32.260;2022-11-20T07:53:02;1.40;99.90
45319;DHT22;31057;48.498;32.260;2022-11-20T07:55:05;1.40;99.90
45319;DHT22;31057;48.498;32.260;2022-11-20T07:57:07;1.40;99.90
45319;DHT22;31057;48.498;32.260;2022-11-20T07:59:09;1.40;99.90
45319;DHT22;31057;48.498;32.260;2022-11-20T08:01:13;1.50;99.90
45319;DHT22;31057;48.498;32.260;2022-11-20T08:03:15;1.50;99.90
45319;DHT22;31057;48.498;32.260;2022-11-20T08:05:24;1.50;99.90
45319;DHT22;31057;48.498;32.260;2022-11-20T08:07:26;1.50;99.90
45319;DHT22;31057;48.498;32.260;2022-11-20T08:09:28;1.50;99.90
45319;DHT22;31057;48.498;32.260;2022-11-20T08:11:30;1.50;99.90
45319;DHT22;31057;48.498;32.260;2022-11-20T08:13:50;1.60;99.90
45319;DHT22;31057;48.498;32.260;2022-11-20T08:16:10;1.60;99.90
45319;DHT22;31057;48.498;32.260;2022-11-20T08:18:12;1.60;99.90
45319;DHT22;31057;48.498;32.260;2022-11-20T08:20:33;1.60;99.90
45319;DHT22;31057;48.498;32.260;2022-11-20T08:22:36;1.60;99.90
45319;DHT22;31057;48.498;32.260;2022-11-20T08:24:38;1.60;99.90
45319;DHT22;31057;48.498;32.260;2022-11-20T08:26:41;1.60;99.90
45319;DHT22;31057;48.498;32.260;2022-11-20T08:28:43;1.40;99.90
45319;DHT22;31057;48.498;32.260;2022-11-20T08:30:45;1.50;99.90
45319;DHT22;31057;48.498;32.260;2022-11-20T08:32:47;1.40;99.90
45319;DHT22;31057;48.498;32.260;2022-11-20T08:34:49;1.50;99.90
45319;DHT22;31057;48.498;32.260;2022-11-20T08:36:51;1.50;99.90
45319;DHT22;31057;48.498;32.260;2022-11-20T08:38:54;1.50;99.90
45319;DHT22;31057;48.498;32.260;2022-11-20T08:40:58;1.40;99.90
45319;DHT22;31057;48.498;32.260;2022-11-20T08:43:19;1.40;99.90
45319;DHT22;31057;48.498;32.260;2022-11-20T08:45:21;1.40;99.90
45319;DHT22;31057;48.498;32.260;2022-11-20T08:47:22;1.50;99.90
45319;DHT22;31057;48.498;32.260;2022-11-20T08:49:24;1.50;99.90
45319;DHT22;31057;48.498;32.260;2022-11-20T08:51:26;1.50;99.90
45319;DHT22;31057;48.498;32.260;2022-11-20T08:53:28;1.50;99.90
45319;DHT22;31057;48.498;32.260;2022-11-20T08:55:30;1.40;99.90
45319;DHT22;31057;48.498;32.260;2022-11-20T08:57:32;1.50;99.90
45319;DHT22;31057;48.498;32.260;2022-11-20T08:59:34;1.50;99.90
45319;DHT22;31057;48.498;32.260;2022-11-20T09:01:56;1.50;99.90
45319;DHT22;31057;48.498;32.260;2022-11-20T09:03:58;1.50;99.90
45319;DHT22;31057;48.498;32.260;2022-11-20T09:06:05;1.50;99.90
45319;DHT22;31057;48.498;32.260;2022-11-20T09:08:07;1.50;99.90
45319;DHT22;31057;48.498;32.260;2022-11-20T09:10:09;1.50;99.90
45319;DHT22;31057;48.498;32.260;2022-11-20T09:12:25;1.60;99.90
45319;DHT22;31057;48.498;32.260;2022-11-20T09:14:26;1.50;99.90
45319;DHT22;31057;48.498;32.260;2022-11-20T09:16:30;1.50;99.90
45319;DHT22;31057;48.498;32.260;2022-11-20T09:18:33;1.40;99.90
45319;DHT22;31057;48.498;32.260;2022-11-20T09:20:37;1.40;99.90
45319;DHT22;31057;48.498;32.260;2022-11-20T09:22:39;1.40;99.90
45319;DHT22;31057;48.498;32.260;2022-11-20T09:24:42;1.50;99.90
45319;DHT22;31057;48.498;32.260;2022-11-20T09:26:44;1.50;99.90
45319;DHT22;31057;48.498;32.260;2022-11-20T09:28:46;1.40;99.90
45319;DHT22;31057;48.498;32.260;2022-11-20T09:30:48;1.50;99.90
45319;DHT22;31057;48.498;32.260;2022-11-20T09:32:50;1.60;99.90
45319;DHT22;31057;48.498;32.260;2022-11-20T09:34:52;1.50;99.90
45319;DHT22;31057;48.498;32.260;2022-11-20T09:36:53;1.40;99.90
45319;DHT22;31057;48.498;32.260;2022-11-20T09:38:55;1.40;99.90
45319;DHT22;31057;48.498;32.260;2022-11-20T09:41:03;1.50;99.90
45319;DHT22;31057;48.498;32.260;2022-11-20T09:50:39;1.10;99.90
45319;DHT22;31057;48.498;32.260;2022-11-20T09:55:10;1.00;99.90
45319;DHT22;31057;48.498;32.260;2022-11-20T09:57:18;1.90;99.90
45319;DHT22;31057;48.498;32.260;2022-11-20T09:59:42;1.90;99.90
45319;DHT22;31057;48.498;32.260;2022-11-20T10:01:45;1.70;99.90
45319;DHT22;31057;48.498;32.260;2022-11-20T10:03:57;1.20;99.90
45319;DHT22;31057;48.498;32.260;2022-11-20T10:06:01;1.60;99.90
45319;DHT22;31057;48.498;32.260;2022-11-20T10:08:18;1.50;99.90
45319;DHT22;31057;48.498;32.260;2022-11-20T10:13:14;2.20;99.90
45319;DHT22;31057;48.498;32.260;2022-11-20T10:20:17;2.60;99.90
45319;DHT22;31057;48.498;32.260;2022-11-20T10:27:15;3.80;99.90
45319;DHT22;31057;48.498;32.260;2022-11-20T10:29:37;4.10;99.90
45319;DHT22;31057;48.498;32.260;2022-11-20T10:31:53;4.70;99.90
45319;DHT22;31057;48.498;32.260;2022-11-20T10:33:59;4.50;99.90
45319;DHT22;31057;48.498;32.260;2022-11-20T10:36:31;4.80;99.90
45319;DHT22;31057;48.498;32.260;2022-11-20T10:38:39;5.00;99.90
45319;DHT22;31057;48.498;32.260;2022-11-20T10:40:51;4.50;99.90
45319;DHT22;31057;48.498;32.260;2022-11-20T10:43:03;4.50;99.90
45319;DHT22;31057;48.498;32.260;2022-11-20T10:47:28;4.10;99.90
45319;DHT22;31057;48.498;32.260;2022-11-20T10:49:33;3.30;99.90
45319;DHT22;31057;48.498;32.260;2022-11-20T10:52:28;3.70;99.90
45319;DHT22;31057;48.498;32.260;2022-11-20T10:56:36;3.20;99.90
45319;DHT22;31057;48.498;32.260;2022-11-20T10:58:52;2.50;99.90
45319;DHT22;31057;48.498;32.260;2022-11-20T11:01:06;2.90;99.90
45319;DHT22;31057;48.498;32.260;2022-11-20T11:03:27;2.60;99.90
45319;DHT22;31057;48.498;32.260;2022-11-20T11:05:40;3.00;99.90
45319;DHT22;31057;48.498;32.260;2022-11-20T11:07:44;3.00;99.90
45319;DHT22;31057;48.498;32.260;2022-11-20T11:09:53;2.30;99.90
45319;DHT22;31057;48.498;32.260;2022-11-20T11:11:55;3.00;99.90
45319;DHT22;31057;48.498;32.260;2022-11-20T11:14:09;2.50;99.90
45319;DHT22;31057;48.498;32.260;2022-11-20T11:16:22;2.90;99.90
45319;DHT22;31057;48.498;32.260;2022-11-20T11:18:29;2.30;99.90
45319;DHT22;31057;48.498;32.260;2022-11-20T11:20:32;2.30;99.90
45319;DHT22;31057;48.498;32.260;2022-11-20T11:22:43;2.90;99.90
45319;DHT22;31057;48.498;32.260;2022-11-20T11:24:53;2.80;99.90
45319;DHT22;31057;48.498;32.260;2022-11-20T11:27:03;3.00;99.90
45319;DHT22;31057;48.498;32.260;2022-11-20T11:29:18;2.70;99.90
45319;DHT22;31057;48.498;32.260;2022-11-20T11:31:30;2.30;99.90
45319;DHT22;31057;48.498;32.260;2022-11-20T11:33:32;2.40;99.90
45319;DHT22;31057;48.498;32.260;2022-11-20T11:38:04;2.50;99.90
45319;DHT22;31057;48.498;32.260;2022-11-20T11:40:10;2.60;99.90
45319;DHT22;31057;48.498;32.260;2022-11-20T11:42:28;2.60;99.90
45319;DHT22;31057;48.498;32.260;2022-11-20T11:44:33;2.60;99.90
45319;DHT22;31057;48.498;32.260;2022-11-20T11:46:55;3.10;99.90
45319;DHT22;31057;48.498;32.260;2022-11-20T11:51:11;2.90;99.90
45319;DHT22;31057;48.498;32.260;2022-11-20T11:53:16;2.90;99.90
45319;DHT22;31057;48.498;32.260;2022-11-20T11:57:28;3.20;99.90
45319;DHT22;31057;48.498;32.260;2022-11-20T12:00:06;3.10;99.90
45319;DHT22;31057;48.498;32.260;2022-11-20T12:02:34;3.20;99.90
45319;DHT22;31057;48.498;32.260;2022-11-20T12:04:44;2.60;99.90
45319;DHT22;31057;48.498;32.260;2022-11-20T12:06:53;3.10;99.90
45319;DHT22;31057;48.498;32.260;2022-11-20T12:09:05;3.00;99.90
45319;DHT22;31057;48.498;32.260;2022-11-20T12:13:30;3.20;99.90
45319;DHT22;31057;48.498;32.260;2022-11-20T12:15:34;2.50;99.90
45319;DHT22;31057;48.498;32.260;2022-11-20T12:17:36;2.50;99.90
45319;DHT22;31057;48.498;32.260;2022-11-20T12:19:38;2.60;99.90
45319;DHT22;31057;48.498;32.260;2022-11-20T12:24:30;2.60;99.90
45319;DHT22;31057;48.498;32.260;2022-11-20T12:37:13;2.70;99.90
45319;DHT22;31057;48.498;32.260;2022-11-20T12:46:47;2.70;99.90
45319;DHT22;31057;48.498;32.260;2022-11-20T12:49:15;3.20;99.90
45319;DHT22;31057;48.498;32.260;2022-11-20T13:01:09;2.90;99.90
45319;DHT22;31057;48.498;32.260;2022-11-20T13:03:44;2.90;99.90
45319;DHT22;31057;48.498;32.260;2022-11-20T13:08:11;2.90;99.90
45319;DHT22;31057;48.498;32.260;2022-11-20T13:10:39;3.50;99.90
45319;DHT22;31057;48.498;32.260;2022-11-20T13:13:14;3.50;99.90
45319;DHT22;31057;48.498;32.260;2022-11-20T13:19:52;3.00;99.90
45319;DHT22;31057;48.498;32.260;2022-11-20T13:21:55;3.30;99.90
45319;DHT22;31057;48.498;32.260;2022-11-20T13:24:05;3.60;99.90
45319;DHT22;31057;48.498;32.260;2022-11-20T13:26:16;3.40;99.90
45319;DHT22;31057;48.498;32.260;2022-11-20T13:30:25;3.60;99.90
45319;DHT22;31057;48.498;32.260;2022-11-20T13:32:27;3.60;99.90
45319;DHT22;31057;48.498;32.260;2022-11-20T13:34:34;3.60;99.90
45319;DHT22;31057;48.498;32.260;2022-11-20T13:36:52;3.00;99.90
45319;DHT22;31057;48.498;32.260;2022-11-20T13:38:55;3.10;99.90
45319;DHT22;31057;48.498;32.260;2022-11-20T13:40:59;3.60;99.90
45319;DHT22;31057;48.498;32.260;2022-11-20T13:45:30;3.70;99.90
45319;DHT22;31057;48.498;32.260;2022-11-20T13:47:33;3.50;99.90
45319;DHT22;31057;48.498;32.260;2022-11-20T13:49:39;3.60;99.90
45319;DHT22;31057;48.498;32.260;2022-11-20T13:51:51;3.60;99.90
45319;DHT22;31057;48.498;32.260;2022-11-20T13:54:17;3.80;99.90
45319;DHT22;31057;48.498;32.260;2022-11-20T14:01:01;3.30;99.90
45319;DHT22;31057;48.498;32.260;2022-11-20T14:05:21;3.70;99.90
45319;DHT22;31057;48.498;32.260;2022-11-20T14:07:27;3.80;99.90
45319;DHT22;31057;48.498;32.260;2022-11-20T14:09:33;3.50;99.90
45319;DHT22;31057;48.498;32.260;2022-11-20T14:11:35;3.80;99.90
45319;DHT22;31057;48.498;32.260;2022-11-20T14:13:37;3.50;99.90
45319;DHT22;31057;48.498;32.260;2022-11-20T14:15:39;3.80;99.90
45319;DHT22;31057;48.498;32.260;2022-11-20T14:17:45;3.60;99.90
45319;DHT22;31057;48.498;32.260;2022-11-20T14:19:50;3.50;99.90
45319;DHT22;31057;48.498;32.260;2022-11-20T14:21:54;3.40;99.90
45319;DHT22;31057;48.498;32.260;2022-11-20T14:24:11;3.40;99.90
45319;DHT22;31057;48.498;32.260;2022-11-20T14:26:17;3.40;99.90
45319;DHT22;31057;48.498;32.260;2022-11-20T14:28:26;3.60;99.90
45319;DHT22;31057;48.498;32.260;2022-11-20T14:30:46;3.70;99.90
45319;DHT22;31057;48.498;32.260;2022-11-20T14:32:50;3.60;99.90
45319;DHT22;31057;48.498;32.260;2022-11-20T14:34:52;3.30;99.90
45319;DHT22;31057;48.498;32.260;2022-11-20T14:36:58;3.40;99.90
45319;DHT22;31057;48.498;32.260;2022-11-20T14:39:00;3.80;99.90
45319;DHT22;31057;48.498;32.260;2022-11-20T14:41:16;4.00;99.90
45319;DHT22;31057;48.498;32.260;2022-11-20T14:43:27;3.70;99.90
45319;DHT22;31057;48.498;32.260;2022-11-20T14:45:29;3.50;99.90